Mahaffey, Pennsylvania
Current Conditions -  °F | °C
As of 11:54 PM on Wednesday 26 Nov 2014 (Local Time) from KFIG Reporting Station
Overcast Overcast  
Wind Chill: -1°   Ceiling: 3200
Heat Index: -1°   Visibility: 10mi
Dew Point: -2°   Wind: 0mph
Humidity: 89%   Direction: NA
Pressure: 29.96"   Gusts: NA
Location:  40.87°N, 78.72°W
Report Text: KFIG 270454Z AUTO 00000KT 10SM OVC032 M01/M02 A2996 RMK AO2 SLP162 T10061022 400001017
Loading
Personal Weather Stations






























Interactive Weather Map New forecast layout! Learn more

10-Day Weather Forecast

Advertisements
Track Severe Weather on mobile